createdAt,value
2023-05-25T00:02:06.291Z,95.47
2023-05-25T00:04:34.756Z,94.00
2023-05-25T00:07:02.426Z,94.18
2023-05-25T00:09:31.280Z,94.15
2023-05-25T00:11:59.785Z,94.80
2023-05-25T00:14:27.364Z,95.66
2023-05-25T00:16:55.274Z,97.42
2023-05-25T00:19:23.211Z,95.54
2023-05-25T00:21:51.133Z,93.54
2023-05-25T00:24:18.678Z,93.82
2023-05-25T00:26:47.537Z,92.89
2023-05-25T00:29:15.032Z,93.45
2023-05-25T00:31:42.559Z,94.94
2023-05-25T00:34:10.181Z,95.67
2023-05-25T00:36:37.758Z,96.95
2023-05-25T00:39:05.318Z,97.31
2023-05-25T00:41:34.806Z,95.56
2023-05-25T00:44:03.925Z,96.40
2023-05-25T00:46:34.290Z,93.82
2023-05-25T00:49:01.963Z,91.41
2023-05-25T00:51:32.930Z,91.62
2023-05-25T00:54:00.564Z,91.06
2023-05-25T00:56:33.633Z,92.48
2023-05-25T00:59:07.503Z,92.60
2023-05-25T01:01:40.182Z,94.89
2023-05-25T01:04:09.953Z,96.46
2023-05-25T01:06:40.135Z,95.04
2023-05-25T01:09:10.931Z,96.51
2023-05-25T01:11:43.092Z,97.81
2023-05-25T01:14:12.105Z,97.03
2023-05-25T01:16:40.632Z,96.47
2023-05-25T01:19:08.243Z,94.15
2023-05-25T01:21:43.300Z,93.68
2023-05-25T01:24:17.514Z,94.20
2023-05-25T01:26:49.552Z,95.29
2023-05-25T01:29:19.957Z,97.46
2023-05-25T01:31:49.009Z,98.49
2023-05-25T01:34:17.941Z,97.85
2023-05-25T01:36:46.895Z,94.69
2023-05-25T01:39:14.490Z,93.62
2023-05-25T01:41:41.995Z,94.43
2023-05-25T01:44:09.630Z,95.41
2023-05-25T01:46:39.879Z,98.55
2023-05-25T01:49:17.650Z,97.29
2023-05-25T01:51:55.851Z,99.38
2023-05-25T01:54:30.109Z,100.00
2023-05-25T01:57:01.292Z,100.00
2023-05-25T01:59:30.023Z,100.00
2023-05-25T02:01:59.218Z,100.00
2023-05-25T02:04:27.316Z,100.00
2023-05-25T02:06:56.530Z,100.00
2023-05-25T02:09:24.043Z,100.00
2023-05-25T02:11:51.552Z,100.00
2023-05-25T02:14:19.195Z,100.00
2023-05-25T02:16:46.988Z,100.00
2023-05-25T02:19:15.107Z,100.00
2023-05-25T02:21:42.855Z,100.00
2023-05-25T02:24:11.765Z,100.00
2023-05-25T02:26:40.087Z,100.00
2023-05-25T02:29:07.742Z,100.00
2023-05-25T02:31:35.618Z,100.00
2023-05-25T02:34:03.170Z,100.00
2023-05-25T02:36:31.828Z,100.00
2023-05-25T02:38:59.376Z,100.00
2023-05-25T02:41:28.263Z,100.00
2023-05-25T02:43:55.839Z,100.00
2023-05-25T02:46:23.665Z,100.00
2023-05-25T02:48:51.854Z,100.00
2023-05-25T02:51:19.480Z,100.00
2023-05-25T02:53:47.036Z,100.00
2023-05-25T02:56:14.531Z,100.00
2023-05-25T02:58:43.511Z,100.00
2023-05-25T03:01:18.139Z,100.00
2023-05-25T03:03:46.940Z,100.00
2023-05-25T03:06:16.004Z,100.00
2023-05-25T03:08:43.549Z,100.00
2023-05-25T03:11:11.041Z,100.00
2023-05-25T03:13:38.533Z,100.00
2023-05-25T03:16:08.108Z,100.00
2023-05-25T03:18:35.613Z,100.00
2023-05-25T03:21:03.113Z,100.00
2023-05-25T03:23:30.640Z,100.00
2023-05-25T03:25:58.143Z,100.00
2023-05-25T03:28:25.845Z,100.00
2023-05-25T03:30:53.506Z,100.00
2023-05-25T03:33:22.380Z,100.00
2023-05-25T03:35:49.912Z,100.00
2023-05-25T03:38:17.432Z,100.00
2023-05-25T03:40:44.953Z,100.00
2023-05-25T03:43:12.444Z,100.00
2023-05-25T03:45:39.960Z,100.00
2023-05-25T03:48:07.752Z,100.00
2023-05-25T03:50:36.615Z,100.00
2023-05-25T03:53:04.133Z,100.00
2023-05-25T03:55:32.370Z,100.00
2023-05-25T03:57:59.863Z,100.00
2023-05-25T04:00:27.726Z,100.00
2023-05-25T04:02:56.854Z,100.00
2023-05-25T04:05:24.568Z,100.00
2023-05-25T04:07:53.752Z,100.00
2023-05-25T04:10:21.313Z,100.00
2023-05-25T04:12:48.948Z,100.00
2023-05-25T04:15:17.129Z,100.00
2023-05-25T04:17:44.715Z,100.00
2023-05-25T04:20:12.609Z,100.00
2023-05-25T04:22:40.160Z,100.00
2023-05-25T04:25:10.390Z,100.00
2023-05-25T04:27:37.900Z,100.00
2023-05-25T04:30:06.513Z,100.00
2023-05-25T04:32:37.311Z,100.00
2023-05-25T04:35:05.513Z,100.00
2023-05-25T04:37:33.359Z,100.00
2023-05-25T04:40:01.703Z,100.00
2023-05-25T04:42:31.398Z,99.07
2023-05-25T04:44:59.460Z,100.00
2023-05-25T04:47:27.034Z,100.00
2023-05-25T04:49:54.565Z,100.00
2023-05-25T04:52:22.068Z,100.00
2023-05-25T04:54:49.555Z,100.00
2023-05-25T04:57:17.180Z,96.43
2023-05-25T04:59:46.003Z,97.36
2023-05-25T05:02:13.577Z,99.43
2023-05-25T05:04:41.566Z,100.00
2023-05-25T05:07:09.116Z,96.49
2023-05-25T05:09:36.644Z,94.38
2023-05-25T05:12:04.280Z,94.57
2023-05-25T05:14:31.798Z,87.51
2023-05-25T05:17:00.666Z,82.44
2023-05-25T05:19:29.206Z,78.71
2023-05-25T05:21:56.786Z,75.48
2023-05-25T05:24:24.593Z,72.77
2023-05-25T05:26:58.335Z,69.80
2023-05-25T05:29:26.815Z,64.79
2023-05-25T05:31:56.214Z,69.49
2023-05-25T05:34:25.335Z,70.51
2023-05-25T05:36:58.132Z,75.63
2023-05-25T05:39:26.778Z,75.24
2023-05-25T05:41:54.678Z,73.64
2023-05-25T05:44:24.079Z,70.81
2023-05-25T05:46:59.825Z,69.46
2023-05-25T05:49:28.763Z,68.31
2023-05-25T05:51:56.370Z,66.91
2023-05-25T05:54:24.449Z,64.66
2023-05-25T05:56:52.462Z,62.62
2023-05-25T05:59:22.106Z,62.76
2023-05-25T06:01:49.694Z,62.76
2023-05-25T06:04:19.543Z,61.75
2023-05-25T06:06:48.405Z,61.90
2023-05-25T06:09:15.947Z,62.79
2023-05-25T06:11:43.429Z,63.68
2023-05-25T06:14:11.276Z,60.88
2023-05-25T06:16:38.877Z,61.02
2023-05-25T06:19:06.430Z,63.58
2023-05-25T06:21:33.951Z,62.45
2023-05-25T06:24:02.822Z,61.44
2023-05-25T06:26:30.404Z,57.23
2023-05-25T06:28:58.442Z,57.13
2023-05-25T06:31:26.350Z,56.22
2023-05-25T06:33:53.885Z,55.61
2023-05-25T06:36:21.760Z,53.92
2023-05-25T06:38:49.271Z,55.72
2023-05-25T06:41:19.679Z,54.77
2023-05-25T06:43:47.178Z,56.07
2023-05-25T06:46:18.241Z,56.75
2023-05-25T06:48:46.312Z,55.27
2023-05-25T06:51:13.942Z,54.84
2023-05-25T06:53:41.477Z,53.91
2023-05-25T06:56:08.983Z,54.33
2023-05-25T06:58:37.942Z,55.33
2023-05-25T07:01:06.063Z,55.26
2023-05-25T07:03:33.659Z,52.47
2023-05-25T07:06:01.269Z,54.73
2023-05-25T07:08:28.793Z,52.57
2023-05-25T07:10:56.344Z,53.11
2023-05-25T07:13:24.366Z,54.84
2023-05-25T07:15:53.504Z,56.03
2023-05-25T07:18:21.154Z,54.56
2023-05-25T07:20:48.934Z,56.28
2023-05-25T07:23:16.457Z,53.89
2023-05-25T07:25:44.122Z,53.12
2023-05-25T07:28:11.777Z,50.53
2023-05-25T07:30:39.362Z,53.05
2023-05-25T07:33:08.297Z,50.22
2023-05-25T07:35:36.135Z,50.28
2023-05-25T07:38:05.288Z,50.03
2023-05-25T07:40:32.926Z,48.65
2023-05-25T07:43:00.465Z,47.70
2023-05-25T07:45:28.073Z,48.35
2023-05-25T07:47:55.733Z,47.13
2023-05-25T07:50:24.643Z,47.02
2023-05-25T07:52:52.191Z,46.70
2023-05-25T07:55:20.355Z,47.44
2023-05-25T07:57:47.852Z,47.44
2023-05-25T08:00:16.032Z,47.88
2023-05-25T08:02:43.616Z,47.94
2023-05-25T08:05:11.405Z,47.22
2023-05-25T08:07:42.112Z,46.09
2023-05-25T08:10:10.883Z,47.47
2023-05-25T08:12:49.005Z,47.11
2023-05-25T08:15:17.946Z,45.62
2023-05-25T08:17:45.670Z,46.13
2023-05-25T08:20:13.586Z,46.96
2023-05-25T08:22:42.675Z,46.09
2023-05-25T08:25:11.149Z,46.43
2023-05-25T08:27:38.917Z,47.01
2023-05-25T08:30:08.036Z,44.57
2023-05-25T08:32:35.692Z,44.30
2023-05-25T08:35:04.565Z,43.47
2023-05-25T08:37:32.653Z,47.23
2023-05-25T08:40:02.639Z,46.13
2023-05-25T08:42:30.826Z,45.39
2023-05-25T08:44:58.753Z,45.62
2023-05-25T08:47:31.404Z,45.18
2023-05-25T08:50:01.450Z,44.29
2023-05-25T08:52:33.108Z,43.66
2023-05-25T08:55:05.570Z,43.98
2023-05-25T08:57:41.762Z,44.82
2023-05-25T09:00:15.581Z,44.57
2023-05-25T09:02:50.089Z,45.07
2023-05-25T09:05:18.330Z,42.92
2023-05-25T09:07:47.411Z,41.31
2023-05-25T09:10:16.538Z,42.56
2023-05-25T09:12:44.374Z,42.54
2023-05-25T09:15:13.119Z,40.13
2023-05-25T09:17:41.753Z,40.95
2023-05-25T09:20:13.613Z,40.11
2023-05-25T09:22:41.865Z,40.65
2023-05-25T09:25:12.464Z,41.25
2023-05-25T09:27:43.078Z,43.06
2023-05-25T09:30:11.193Z,42.01
2023-05-25T09:32:39.097Z,41.52
2023-05-25T09:35:10.925Z,40.39
2023-05-25T09:37:38.891Z,39.20
2023-05-25T09:40:08.925Z,40.84
2023-05-25T09:42:36.695Z,39.24
2023-05-25T09:45:07.246Z,41.88
2023-05-25T09:47:37.456Z,40.97
2023-05-25T09:50:06.276Z,40.00
2023-05-25T09:52:33.784Z,39.41
2023-05-25T09:55:03.582Z,41.00
2023-05-25T09:57:31.433Z,41.11
2023-05-25T09:59:58.935Z,40.78
2023-05-25T10:02:27.798Z,39.39
2023-05-25T10:04:55.427Z,41.11
2023-05-25T10:07:23.628Z,40.96
2023-05-25T10:09:53.374Z,40.15
2023-05-25T10:12:22.837Z,39.83
2023-05-25T10:14:52.086Z,39.72
2023-05-25T10:17:24.067Z,40.68
2023-05-25T10:19:57.873Z,40.16
2023-05-25T10:22:31.256Z,39.62
2023-05-25T10:25:08.710Z,39.41
2023-05-25T10:27:41.666Z,40.06
2023-05-25T10:30:10.498Z,41.38
2023-05-25T10:32:38.847Z,40.15
2023-05-25T10:35:09.870Z,41.22
2023-05-25T10:37:38.692Z,38.12
2023-05-25T10:40:09.461Z,37.17
2023-05-25T10:42:38.443Z,38.34
2023-05-25T10:45:08.345Z,38.36
2023-05-25T10:47:37.757Z,40.35
2023-05-25T10:50:06.205Z,38.04
2023-05-25T10:52:35.579Z,40.98
2023-05-25T10:55:04.822Z,39.74
2023-05-25T10:57:32.655Z,37.40
2023-05-25T11:00:06.564Z,39.53
2023-05-25T11:02:51.575Z,39.80
2023-05-25T11:05:32.964Z,38.24
2023-05-25T11:08:04.723Z,35.41
2023-05-25T11:10:53.249Z,34.67
2023-05-25T11:13:33.736Z,34.22
2023-05-25T11:16:36.136Z,32.80
2023-05-25T11:19:03.979Z,34.54
2023-05-25T11:21:43.598Z,34.92
2023-05-25T11:24:17.278Z,33.57
2023-05-25T11:26:56.522Z,32.95
2023-05-25T11:29:25.804Z,31.37
2023-05-25T11:31:54.999Z,35.81
2023-05-25T11:34:24.307Z,35.34
2023-05-25T11:36:55.793Z,34.95
2023-05-25T11:39:24.884Z,34.71
2023-05-25T11:41:56.774Z,35.16
2023-05-25T11:44:31.606Z,35.05
2023-05-25T11:47:02.380Z,33.11
2023-05-25T11:49:29.962Z,37.88
2023-05-25T11:51:58.443Z,34.56
2023-05-25T11:54:28.639Z,35.07
2023-05-25T11:56:59.302Z,37.52
2023-05-25T11:59:29.765Z,37.11
2023-05-25T12:02:00.934Z,35.01
2023-05-25T12:04:28.997Z,36.01
2023-05-25T12:07:03.442Z,35.73
2023-05-25T12:09:32.985Z,34.33
2023-05-25T12:12:00.766Z,34.79
2023-05-25T12:14:28.358Z,34.16
2023-05-25T12:16:56.164Z,35.72
2023-05-25T12:19:24.159Z,36.48
2023-05-25T12:21:52.132Z,35.36
2023-05-25T12:24:20.234Z,36.26
2023-05-25T12:26:49.970Z,36.68
2023-05-25T12:29:17.721Z,36.75
2023-05-25T12:31:45.452Z,33.35
2023-05-25T12:34:14.272Z,34.07
2023-05-25T12:36:44.171Z,36.43
2023-05-25T12:39:13.295Z,35.34
2023-05-25T12:41:50.645Z,34.75
2023-05-25T12:44:25.135Z,35.26
2023-05-25T12:46:53.936Z,35.03
2023-05-25T12:49:29.328Z,35.54
2023-05-25T12:51:57.413Z,38.42
2023-05-25T12:54:35.374Z,36.95
2023-05-25T12:57:05.751Z,35.47
2023-05-25T12:59:33.903Z,35.99
2023-05-25T13:02:01.725Z,35.85
2023-05-25T13:04:29.360Z,37.07
2023-05-25T13:06:56.910Z,37.93
2023-05-25T13:09:26.755Z,36.67
2023-05-25T13:11:55.608Z,35.54
2023-05-25T13:14:25.419Z,36.45
2023-05-25T13:16:54.571Z,35.10
2023-05-25T13:19:24.259Z,37.23
2023-05-25T13:21:52.082Z,38.07
2023-05-25T13:24:20.444Z,35.33
2023-05-25T13:26:49.985Z,36.28
2023-05-25T13:29:18.668Z,35.60
2023-05-25T13:31:48.196Z,37.90
2023-05-25T13:34:15.919Z,37.13
2023-05-25T13:36:43.429Z,34.55
2023-05-25T13:39:13.482Z,34.22
2023-05-25T13:41:41.757Z,35.92
2023-05-25T13:44:11.069Z,36.96
2023-05-25T13:46:38.763Z,37.85
2023-05-25T13:49:07.947Z,36.66
2023-05-25T13:51:35.814Z,35.99
2023-05-25T13:54:03.602Z,35.30
2023-05-25T13:56:31.105Z,33.89
2023-05-25T13:58:58.618Z,33.11
2023-05-25T14:01:27.460Z,33.09
2023-05-25T14:03:56.062Z,33.46
2023-05-25T14:06:25.111Z,34.15
2023-05-25T14:08:52.667Z,34.32
2023-05-25T14:11:27.326Z,35.90
2023-05-25T14:13:56.116Z,37.42
2023-05-25T14:16:23.696Z,37.62
2023-05-25T14:18:51.387Z,36.48
2023-05-25T14:21:19.088Z,36.06
2023-05-25T14:23:47.949Z,36.69
2023-05-25T14:26:15.533Z,36.58
2023-05-25T14:28:43.271Z,36.56
2023-05-25T14:31:12.297Z,37.09
2023-05-25T14:33:42.117Z,34.70
2023-05-25T14:36:10.531Z,35.13
2023-05-25T14:38:38.060Z,36.49
2023-05-25T14:41:06.961Z,36.92
2023-05-25T14:43:34.918Z,38.26
2023-05-25T14:46:02.440Z,37.88
2023-05-25T14:48:30.018Z,37.81
2023-05-25T14:50:59.111Z,36.02
2023-05-25T14:53:26.626Z,36.98
2023-05-25T14:55:54.125Z,35.77
2023-05-25T14:58:23.002Z,36.71
2023-05-25T15:00:50.653Z,38.03
2023-05-25T15:03:19.000Z,37.81
2023-05-25T15:05:46.789Z,36.86
2023-05-25T15:08:14.493Z,38.23
2023-05-25T15:10:42.031Z,37.69
2023-05-25T15:13:10.817Z,37.63
2023-05-25T15:15:41.685Z,40.70
2023-05-25T15:18:09.288Z,38.50
2023-05-25T15:20:36.873Z,37.42
2023-05-25T15:23:04.514Z,36.97
2023-05-25T15:25:35.606Z,38.83
2023-05-25T15:28:04.186Z,37.45
2023-05-25T15:30:33.204Z,38.27
2023-05-25T15:33:02.250Z,37.67
2023-05-25T15:35:32.264Z,37.70
2023-05-25T15:38:00.186Z,38.00
2023-05-25T15:40:27.689Z,37.33
2023-05-25T15:42:55.219Z,41.83
2023-05-25T15:45:22.818Z,37.83
2023-05-25T15:47:50.548Z,37.91
2023-05-25T15:50:19.474Z,37.98
2023-05-25T15:52:47.027Z,37.33
2023-05-25T15:55:14.580Z,37.63
2023-05-25T15:57:42.099Z,38.97
2023-05-25T16:00:10.746Z,37.33
2023-05-25T16:02:38.312Z,38.79
2023-05-25T16:05:07.181Z,40.37
2023-05-25T16:07:36.160Z,37.94
2023-05-25T16:10:03.814Z,38.03
2023-05-25T16:12:31.319Z,38.53
2023-05-25T16:14:58.840Z,39.58
2023-05-25T16:17:26.413Z,38.96
2023-05-25T16:19:53.961Z,37.57
2023-05-25T16:22:21.594Z,37.56
2023-05-25T16:24:50.427Z,39.61
2023-05-25T16:27:18.015Z,40.21
2023-05-25T16:29:45.542Z,40.44
2023-05-25T16:32:13.122Z,40.99
2023-05-25T16:34:40.780Z,39.18
2023-05-25T16:37:08.259Z,38.90
2023-05-25T16:39:35.794Z,39.58
2023-05-25T16:42:05.008Z,39.35
2023-05-25T16:44:32.547Z,39.58
2023-05-25T16:47:00.056Z,39.38
2023-05-25T16:49:27.581Z,39.63
2023-05-25T16:51:55.117Z,40.16
2023-05-25T16:54:22.658Z,39.44
2023-05-25T16:56:50.172Z,39.20
2023-05-25T16:59:18.982Z,40.36
2023-05-25T17:01:46.586Z,40.33
2023-05-25T17:04:14.122Z,38.55
2023-05-25T17:06:41.627Z,38.36
2023-05-25T17:09:11.759Z,38.50
2023-05-25T17:11:39.318Z,39.43
2023-05-25T17:14:07.331Z,39.79
2023-05-25T17:16:36.561Z,39.88
2023-05-25T17:19:04.126Z,40.39
2023-05-25T17:21:32.061Z,39.79
2023-05-25T17:23:59.614Z,40.14
2023-05-25T17:26:27.132Z,39.64
2023-05-25T17:28:54.906Z,39.30
2023-05-25T17:31:22.413Z,39.95
2023-05-25T17:33:51.286Z,39.28
2023-05-25T17:36:18.767Z,39.35
2023-05-25T17:38:46.268Z,39.67
2023-05-25T17:41:13.741Z,40.29
2023-05-25T17:43:41.296Z,40.10
2023-05-25T17:46:08.999Z,40.23
2023-05-25T17:48:37.008Z,39.73
2023-05-25T17:51:05.974Z,39.60
2023-05-25T17:53:33.508Z,40.11
2023-05-25T17:56:01.065Z,39.20
2023-05-25T17:58:28.806Z,39.05
2023-05-25T18:00:56.510Z,39.07
2023-05-25T18:03:25.736Z,38.42
2023-05-25T18:05:53.314Z,38.60
2023-05-25T18:08:22.335Z,38.02
2023-05-25T18:10:50.251Z,37.56
2023-05-25T18:13:17.818Z,37.92
2023-05-25T18:15:45.449Z,38.34
2023-05-25T18:18:15.576Z,38.91
2023-05-25T18:20:43.330Z,39.07
2023-05-25T18:23:13.193Z,39.69
2023-05-25T18:25:42.181Z,40.42
2023-05-25T18:28:09.796Z,41.11
2023-05-25T18:30:37.297Z,41.28
2023-05-25T18:33:05.010Z,41.02
2023-05-25T18:35:32.563Z,41.10
2023-05-25T18:38:00.154Z,41.64
2023-05-25T18:40:27.694Z,41.73
2023-05-25T18:42:56.497Z,42.01
2023-05-25T18:45:24.000Z,42.16
2023-05-25T18:47:51.725Z,43.91
2023-05-25T18:50:19.900Z,44.61
2023-05-25T18:52:50.587Z,45.47
2023-05-25T18:55:18.370Z,46.00
2023-05-25T18:57:45.842Z,46.48
2023-05-25T19:00:15.844Z,47.71
2023-05-25T19:02:43.407Z,47.97
2023-05-25T19:05:11.495Z,49.17
2023-05-25T19:07:54.776Z,50.11
2023-05-25T19:10:26.362Z,51.08
2023-05-25T19:12:53.946Z,52.38
2023-05-25T19:15:22.913Z,54.09
2023-05-25T19:17:50.704Z,54.82
2023-05-25T19:20:18.332Z,56.04
2023-05-25T19:22:46.409Z,58.11
2023-05-25T19:25:13.938Z,57.41
2023-05-25T19:27:41.495Z,57.28
2023-05-25T19:30:09.434Z,57.56
2023-05-25T19:32:38.311Z,58.59
2023-05-25T19:35:06.454Z,58.92
2023-05-25T19:37:33.939Z,59.80
2023-05-25T19:40:01.668Z,60.03
2023-05-25T19:42:29.263Z,60.97
2023-05-25T19:44:57.071Z,60.81
2023-05-25T19:47:24.751Z,60.38
2023-05-25T19:49:54.018Z,60.57
2023-05-25T19:52:21.589Z,62.01
2023-05-25T19:54:50.737Z,62.75
2023-05-25T19:57:19.055Z,63.88
2023-05-25T19:59:46.595Z,64.51
2023-05-25T20:02:14.153Z,66.19
2023-05-25T20:04:41.714Z,66.69
2023-05-25T20:07:10.572Z,67.55
2023-05-25T20:09:38.877Z,67.74
2023-05-25T20:12:07.259Z,70.31
2023-05-25T20:14:34.767Z,68.88
2023-05-25T20:17:02.349Z,72.00
2023-05-25T20:19:29.864Z,74.57
2023-05-25T20:21:57.829Z,78.88
2023-05-25T20:24:26.680Z,80.37
2023-05-25T20:26:56.577Z,79.98
2023-05-25T20:29:24.490Z,76.34
2023-05-25T20:31:52.575Z,74.88
2023-05-25T20:34:20.142Z,72.99
2023-05-25T20:36:47.658Z,71.74
2023-05-25T20:39:15.905Z,72.42
2023-05-25T20:41:44.888Z,72.54
2023-05-25T20:44:14.004Z,72.82
2023-05-25T20:46:41.712Z,71.86
2023-05-25T20:49:09.282Z,73.66
2023-05-25T20:51:36.766Z,77.83
2023-05-25T20:54:04.298Z,78.37
2023-05-25T20:56:31.835Z,80.69
2023-05-25T20:59:00.742Z,80.77
2023-05-25T21:01:29.263Z,79.71
2023-05-25T21:03:56.951Z,79.76
2023-05-25T21:06:24.599Z,80.26
2023-05-25T21:08:52.952Z,81.02
2023-05-25T21:11:20.846Z,82.04
2023-05-25T21:13:48.870Z,83.47
2023-05-25T21:16:17.790Z,83.31
2023-05-25T21:18:45.666Z,83.94
2023-05-25T21:21:14.791Z,84.35
2023-05-25T21:23:42.346Z,84.20
2023-05-25T21:26:09.905Z,84.96
2023-05-25T21:28:37.402Z,86.13
2023-05-25T21:31:04.938Z,85.88
2023-05-25T21:33:35.835Z,85.39
2023-05-25T21:36:03.777Z,85.98
2023-05-25T21:38:31.289Z,85.61
2023-05-25T21:40:59.434Z,85.93
2023-05-25T21:43:27.588Z,87.52
2023-05-25T21:45:55.102Z,88.05
2023-05-25T21:48:22.658Z,88.30
2023-05-25T21:50:52.204Z,89.54
2023-05-25T21:53:20.075Z,90.21
2023-05-25T21:55:48.588Z,91.15
2023-05-25T21:58:18.500Z,89.84
2023-05-25T22:00:46.242Z,89.38
2023-05-25T22:03:14.321Z,89.18
2023-05-25T22:05:42.230Z,89.45
2023-05-25T22:08:11.236Z,90.83
2023-05-25T22:10:39.277Z,92.45
2023-05-25T22:13:07.137Z,92.40
2023-05-25T22:15:35.267Z,93.27
2023-05-25T22:18:02.888Z,93.63
2023-05-25T22:20:30.444Z,93.79
2023-05-25T22:22:58.030Z,94.27
2023-05-25T22:25:26.954Z,94.25
2023-05-25T22:27:54.453Z,95.13
2023-05-25T22:30:22.182Z,94.85
2023-05-25T22:32:49.722Z,95.78
2023-05-25T22:35:17.340Z,95.51
2023-05-25T22:37:44.832Z,95.61
2023-05-25T22:40:13.469Z,96.43
2023-05-25T22:42:43.209Z,96.01
2023-05-25T22:45:11.370Z,95.86
2023-05-25T22:47:38.868Z,95.18
2023-05-25T22:50:07.422Z,95.83
2023-05-25T22:52:34.928Z,95.31
2023-05-25T22:55:02.414Z,95.68
2023-05-25T22:57:30.021Z,94.80
2023-05-25T22:59:58.852Z,94.33
2023-05-25T23:02:26.772Z,96.24
2023-05-25T23:04:54.329Z,95.99
2023-05-25T23:07:21.879Z,96.39
2023-05-25T23:09:49.390Z,96.61
2023-05-25T23:12:16.910Z,96.75
2023-05-25T23:14:44.867Z,97.77
2023-05-25T23:17:13.736Z,97.03
2023-05-25T23:19:41.278Z,97.97
2023-05-25T23:22:08.778Z,98.35
2023-05-25T23:24:36.458Z,98.07
2023-05-25T23:27:05.341Z,98.30
2023-05-25T23:29:32.837Z,98.77
2023-05-25T23:32:00.416Z,99.58
2023-05-25T23:34:29.414Z,98.73
2023-05-25T23:36:58.203Z,98.14
2023-05-25T23:39:25.878Z,98.40
2023-05-25T23:41:53.496Z,98.42
2023-05-25T23:44:21.624Z,98.34
2023-05-25T23:46:49.192Z,98.73
2023-05-25T23:49:16.702Z,100.00
2023-05-25T23:51:45.608Z,100.00
2023-05-25T23:54:13.285Z,100.00
2023-05-25T23:56:40.781Z,100.00
2023-05-25T23:59:08.339Z,100.00
